Time;durP1;ratioP1;P1;durP2;ratioP2;P2;SDS_P1;SDS_P2;PMS_P1;PMS_P2;Temp;Humidity;BMP_temperature;BMP_pressure;BME280_temperature;BME280_humidity;BME280_pressure;Samples;Min_cycle;Max_cycle;Signal;HPM_P1;HPM_P2
2023/07/10 00:00:42;;;;;;;29.73;17.38;;;;;;;16.95;100.00;101989.16;4985802;28;20034;-74
2023/07/10 00:03:28;;;;;;;27.23;17.42;;;;;;;16.92;100.00;101982.19;4985835;28;20041;-75
2023/07/10 00:06:15;;;;;;;26.25;16.48;;;;;;;16.91;100.00;101976.91;4985900;28;20039;-74
2023/07/10 00:09:01;;;;;;;21.35;14.63;;;;;;;16.91;100.00;101969.75;4987095;28;20038;-74
2023/07/10 00:11:47;;;;;;;22.60;14.43;;;;;;;16.90;100.00;101964.47;4985885;28;20038;-74
2023/07/10 00:14:34;;;;;;;27.50;15.48;;;;;;;16.90;100.00;101960.00;4987482;28;20496;-74
2023/07/10 00:17:20;;;;;;;24.77;15.05;;;;;;;16.92;100.00;101954.56;4985764;28;20516;-74
2023/07/10 00:20:14;;;;;;;22.15;15.05;;;;;;;16.91;100.00;101947.47;4985714;28;20469;-74
2023/07/10 00:23:00;;;;;;;23.80;15.07;;;;;;;16.91;100.00;101951.03;4989457;28;20130;-74
2023/07/10 00:25:47;;;;;;;24.50;13.98;;;;;;;16.93;100.00;101948.25;4980896;28;20551;-74
2023/07/10 00:28:32;;;;;;;23.02;14.98;;;;;;;16.92;100.00;101947.41;4990594;28;20042;-74
2023/07/10 00:31:19;;;;;;;22.98;14.50;;;;;;;16.94;100.00;101931.28;4988578;28;20062;-74
2023/07/10 00:34:15;;;;;;;24.92;15.48;;;;;;;16.93;100.00;101929.53;4988601;28;20489;-74
2023/07/10 00:37:01;;;;;;;22.83;15.35;;;;;;;16.92;100.00;101938.50;4988021;28;20041;-74
2023/07/10 00:39:47;;;;;;;19.08;13.48;;;;;;;16.92;100.00;101942.06;4988539;28;20046;-74
2023/07/10 00:42:33;;;;;;;21.45;14.48;;;;;;;16.93;100.00;101940.22;4989703;28;20058;-74
2023/07/10 00:45:19;;;;;;;21.20;14.27;;;;;;;16.93;100.00;101941.09;4989101;28;20600;-74
2023/07/10 00:48:10;;;;;;;22.90;14.85;;;;;;;16.95;100.00;101949.06;4980966;28;20084;-74
2023/07/10 00:50:59;;;;;;;23.23;14.50;;;;;;;16.96;100.00;101948.94;4982007;28;20065;-74
2023/07/10 00:53:46;;;;;;;22.45;14.73;;;;;;;16.95;100.00;101939.19;4971559;28;20065;-74
2023/07/10 00:56:39;;;;;;;22.25;14.77;;;;;;;16.95;100.00;101931.19;4981380;28;20062;-75
2023/07/10 00:59:27;;;;;;;25.48;14.70;;;;;;;16.94;100.00;101923.25;4986794;28;20034;-74
2023/07/10 01:02:13;;;;;;;23.20;15.20;;;;;;;16.92;100.00;101919.78;4967125;28;20061;-74
2023/07/10 01:05:03;;;;;;;23.85;15.68;;;;;;;16.88;100.00;101908.41;4981272;28;20061;-74
2023/07/10 01:07:54;;;;;;;23.05;15.60;;;;;;;16.88;100.00;101908.41;4981806;28;20038;-74
2023/07/10 01:10:40;;;;;;;26.73;15.63;;;;;;;16.87;100.00;101933.41;4986091;28;20034;-74
2023/07/10 01:13:26;;;;;;;22.75;15.35;;;;;;;16.86;100.00;101947.75;4985951;28;20255;-74
2023/07/10 01:16:12;;;;;;;23.52;15.15;;;;;;;16.84;100.00;101952.31;4967127;28;20036;-74
2023/07/10 01:18:58;;;;;;;23.20;15.13;;;;;;;16.83;100.00;101953.25;4989699;28;20124;-74
2023/07/10 01:21:44;;;;;;;23.98;15.43;;;;;;;16.82;100.00;101967.56;4985594;28;20049;-74
2023/07/10 01:24:30;;;;;;;28.10;16.60;;;;;;;16.78;100.00;101971.38;4987539;28;20841;-74
2023/07/10 01:27:16;;;;;;;28.23;15.98;;;;;;;16.77;100.00;101973.16;4975956;28;20388;-75
2023/07/10 01:30:14;;;;;;;24.60;16.05;;;;;;;16.76;100.00;101979.47;4982547;28;20053;-74
2023/07/10 01:33:00;;;;;;;24.50;16.40;;;;;;;16.77;100.00;101972.31;4976733;28;20501;-75
2023/07/10 01:35:49;;;;;;;26.48;17.23;;;;;;;16.80;100.00;101954.28;4987387;28;20045;-74
2023/07/10 01:38:38;;;;;;;28.33;18.05;;;;;;;16.82;100.00;101938.16;4977363;28;20035;-74
2023/07/10 01:41:32;;;;;;;26.33;17.90;;;;;;;16.82;100.00;101935.47;4976638;28;20438;-75
2023/07/10 01:44:30;;;;;;;30.35;18.17;;;;;;;16.79;100.00;101925.81;4984284;28;20042;-75
2023/07/10 01:47:16;;;;;;;25.58;17.45;;;;;;;16.77;100.00;101925.03;4990234;28;20038;-74
2023/07/10 01:50:02;;;;;;;28.30;17.77;;;;;;;16.74;100.00;101927.00;4972506;28;20455;-74
2023/07/10 01:52:48;;;;;;;31.45;18.85;;;;;;;16.71;100.00;101922.69;4988701;28;20060;-75
2023/07/10 01:55:38;;;;;;;31.13;18.65;;;;;;;16.69;100.00;101925.44;4988325;28;20065;-75
2023/07/10 01:58:24;;;;;;;29.38;18.13;;;;;;;16.67;100.00;101929.16;4988619;28;20412;-74
2023/07/10 02:01:10;;;;;;;28.30;19.05;;;;;;;16.65;100.00;101928.38;4987359;28;20053;-75
2023/07/10 02:03:59;;;;;;;27.75;18.27;;;;;;;16.68;100.00;101934.41;4972511;28;20034;-74
2023/07/10 02:06:45;;;;;;;33.25;20.08;;;;;;;16.68;100.00;101939.75;4987323;28;20048;-74
2023/07/10 02:09:31;;;;;;;31.23;20.00;;;;;;;16.64;100.00;101948.91;4988098;28;20441;-75
2023/07/10 02:12:19;;;;;;;29.55;19.45;;;;;;;16.62;100.00;101955.28;4987958;28;20048;-74
2023/07/10 02:15:06;;;;;;;30.80;18.60;;;;;;;16.56;100.00;101957.34;4987465;28;20040;-74
2023/07/10 02:17:57;;;;;;;26.13;17.27;;;;;;;16.52;100.00;101953.06;4992254;28;20042;-74
2023/07/10 02:20:43;;;;;;;22.40;14.48;;;;;;;16.44;100.00;101952.63;5008846;28;20045;-76
2023/07/10 02:23:29;;;;;;;18.00;12.18;;;;;;;16.34;100.00;101952.25;4976590;28;20106;-74
2023/07/10 02:26:16;;;;;;;15.98;11.48;;;;;;;16.23;100.00;101950.13;5007292;28;20084;-76
2023/07/10 02:29:02;;;;;;;14.07;9.68;;;;;;;16.16;100.00;101938.03;5005840;28;20083;-75
2023/07/10 02:32:01;;;;;;;12.95;9.43;;;;;;;16.09;100.00;101942.84;5010903;28;20050;-76
2023/07/10 02:34:46;;;;;;;14.20;8.88;;;;;;;16.06;100.00;101937.66;4987629;28;20034;-75
2023/07/10 02:37:32;;;;;;;14.48;9.07;;;;;;;16.01;100.00;101945.03;5009852;28;20050;-75
2023/07/10 02:40:18;;;;;;;12.02;8.65;;;;;;;15.96;100.00;101937.25;4994162;28;20087;-75
2023/07/10 02:43:04;;;;;;;11.63;8.70;;;;;;;15.91;100.00;101938.41;4990704;28;20089;-75
2023/07/10 02:45:50;;;;;;;10.88;7.97;;;;;;;15.82;100.00;101935.28;4987318;28;20394;-76
2023/07/10 02:48:36;;;;;;;14.55;8.85;;;;;;;15.79;100.00;101931.91;4992589;28;20587;-75
2023/07/10 02:51:24;;;;;;;11.65;8.32;;;;;;;15.75;100.00;101925.84;5003842;28;20036;-75
2023/07/10 02:54:11;;;;;;;11.60;7.22;;;;;;;15.72;100.00;101920.66;4988065;28;20038;-75
2023/07/10 02:56:56;;;;;;;10.77;6.20;;;;;;;15.65;100.00;101928.13;5004203;28;20034;-74
2023/07/10 02:59:46;;;;;;;8.27;6.13;;;;;;;15.60;100.00;101916.78;4985041;28;20465;-75
2023/07/10 03:02:32;;;;;;;8.50;5.35;;;;;;;15.56;100.00;101923.22;4998739;28;21610;-75
2023/07/10 03:05:18;;;;;;;7.78;5.25;;;;;;;15.50;100.00;101935.06;4994324;28;20044;-76
2023/07/10 03:08:04;;;;;;;6.65;4.80;;;;;;;15.44;100.00;101932.69;5008531;28;20153;-75
2023/07/10 03:11:05;;;;;;;8.95;4.25;;;;;;;15.39;100.00;101948.06;5008712;28;20114;-74
2023/07/10 03:13:52;;;;;;;7.72;4.65;;;;;;;15.33;100.00;101943.88;5007876;28;20010;-75
2023/07/10 03:16:38;;;;;;;6.47;4.28;;;;;;;15.28;100.00;101944.13;4996109;28;20089;-76
2023/07/10 03:19:24;;;;;;;5.45;4.30;;;;;;;15.25;100.00;101938.91;5002030;28;20097;-75
2023/07/10 03:22:10;;;;;;;6.43;4.07;;;;;;;15.22;100.00;101941.75;4992835;28;20038;-75
2023/07/10 03:24:56;;;;;;;6.82;4.30;;;;;;;15.19;100.00;101948.09;4955649;28;20044;-75
2023/07/10 03:27:42;;;;;;;6.50;3.95;;;;;;;15.17;100.00;101941.97;4995428;28;20140;-75
2023/07/10 03:30:28;;;;;;;8.00;4.25;;;;;;;15.18;100.00;101940.16;4994054;28;20049;-74
2023/07/10 03:33:15;;;;;;;6.85;4.13;;;;;;;15.18;100.00;101941.03;4982149;28;20044;-75
2023/07/10 03:36:05;;;;;;;6.93;3.80;;;;;;;15.17;100.00;101938.41;4970563;28;20042;-75
2023/07/10 03:38:51;;;;;;;6.47;3.90;;;;;;;15.14;100.00;101944.75;4984462;28;20539;-76
2023/07/10 03:41:37;;;;;;;5.97;3.47;;;;;;;15.14;100.00;101939.44;4993312;28;21682;-75
2023/07/10 03:44:22;;;;;;;5.30;3.55;;;;;;;15.14;100.00;101939.44;4992538;28;20597;-75
2023/07/10 03:47:08;;;;;;;6.93;3.85;;;;;;;15.15;100.00;101949.16;4996622;28;20453;-75
2023/07/10 03:49:54;;;;;;;7.05;4.03;;;;;;;15.14;100.00;101955.44;4996645;28;20049;-75
2023/07/10 03:52:40;;;;;;;6.65;3.88;;;;;;;15.13;100.00;101950.16;4993817;28;20038;-76
2023/07/10 03:55:25;;;;;;;9.27;3.67;;;;;;;15.14;100.00;101954.59;4997913;28;20066;-75
2023/07/10 03:58:19;;;;;;;7.38;3.53;;;;;;;15.15;100.00;101962.50;4997506;28;20516;-74
2023/07/10 04:01:04;;;;;;;6.72;4.03;;;;;;;15.18;100.00;101961.47;4984907;28;20512;-74
2023/07/10 04:03:50;;;;;;;7.18;4.00;;;;;;;15.20;100.00;101955.13;4998968;28;20119;-75
2023/07/10 04:06:36;;;;;;;7.60;3.70;;;;;;;15.24;100.00;101955.00;5002675;28;21564;-75
2023/07/10 04:09:22;;;;;;;5.00;3.47;;;;;;;15.26;100.00;101958.47;4999498;28;20413;-75
2023/07/10 04:12:08;;;;;;;5.07;3.75;;;;;;;15.27;100.00;101950.41;5010941;28;20042;-75
2023/07/10 04:14:58;;;;;;;6.57;3.72;;;;;;;15.29;100.00;101958.31;4990643;28;20695;-76
2023/07/10 04:17:44;;;;;;;6.93;3.67;;;;;;;15.32;100.00;101959.03;4992923;28;20038;-75
2023/07/10 04:20:29;;;;;;;4.72;3.60;;;;;;;15.38;100.00;101962.34;5004154;28;20089;-74
2023/07/10 04:23:18;;;;;;;5.15;3.60;;;;;;;15.43;100.00;101971.00;4994174;28;20057;-75
2023/07/10 04:26:04;;;;;;;5.93;3.53;;;;;;;15.47;100.00;101972.56;4986373;28;20106;-76
2023/07/10 04:28:54;;;;;;;6.85;3.80;;;;;;;15.48;100.00;101977.81;4982542;28;20034;-75
2023/07/10 04:31:43;;;;;;;7.40;4.10;;;;;;;15.48;100.00;101980.50;4992937;28;20100;-76
2023/07/10 04:34:28;;;;;;;9.77;4.35;;;;;;;15.51;100.00;101984.81;4998980;28;20046;-74
2023/07/10 04:37:14;;;;;;;5.57;3.88;;;;;;;15.52;100.00;101985.72;5004050;28;20050;-74
2023/07/10 04:40:00;;;;;;;6.28;3.85;;;;;;;15.50;100.00;101980.44;5004383;28;20049;-75
2023/07/10 04:42:46;;;;;;;8.00;3.50;;;;;;;15.50;100.00;101980.44;4998772;28;20037;-74
2023/07/10 04:45:32;;;;;;;8.57;3.60;;;;;;;15.48;100.00;101985.00;4997642;28;20306;-75
2023/07/10 04:48:17;;;;;;;6.70;3.80;;;;;;;15.51;100.00;101983.97;4998554;28;20062;-75
2023/07/10 04:51:05;;;;;;;8.38;3.50;;;;;;;15.54;100.00;101982.03;4986677;28;20187;-73
2023/07/10 04:53:51;;;;;;;5.70;3.50;;;;;;;15.63;100.00;101985.19;4983937;28;20042;-73
2023/07/10 04:56:37;;;;;;;7.78;4.38;;;;;;;15.67;100.00;101990.28;4988663;28;20582;-75
2023/07/10 04:59:22;;;;;;;7.13;3.42;;;;;;;15.72;100.00;101988.25;4985471;28;20046;-75
2023/07/10 05:02:08;;;;;;;7.22;3.55;;;;;;;15.81;100.00;101986.94;4981670;28;20504;-75
2023/07/10 05:04:54;;;;;;;6.18;3.55;;;;;;;15.88;100.00;101992.84;4977470;28;20037;-73
2023/07/10 05:07:43;;;;;;;6.90;3.50;;;;;;;15.94;100.00;101991.69;4985306;28;20045;-73
2023/07/10 05:10:29;;;;;;;6.10;3.42;;;;;;;15.97;100.00;101986.22;4998065;28;20040;-73
2023/07/10 05:13:23;;;;;;;6.40;3.60;;;;;;;16.00;100.00;101988.72;4995884;28;20556;-73
2023/07/10 05:16:09;;;;;;;6.35;3.53;;;;;;;16.03;100.00;101991.25;4987713;28;20446;-74
2023/07/10 05:18:54;;;;;;;8.07;3.47;;;;;;;16.06;100.00;101992.91;4998882;28;20393;-74
2023/07/10 05:21:40;;;;;;;10.68;3.60;;;;;;;16.09;100.00;101995.41;4998026;28;20042;-74
2023/07/10 05:24:26;;;;;;;6.90;3.20;;;;;;;16.08;100.00;101999.88;4998933;28;20642;-74
2023/07/10 05:27:17;;;;;;;5.43;3.17;;;;;;;16.08;100.00;101999.88;4998181;28;20040;-75
2023/07/10 05:30:04;;;;;;;5.25;3.53;;;;;;;16.10;100.00;101997.13;4991212;28;20501;-75
2023/07/10 05:32:51;;;;;;;6.70;3.80;;;;;;;16.11;100.00;101994.38;4980943;28;20111;-75
2023/07/10 05:35:36;;;;;;;6.93;3.60;;;;;;;16.15;100.00;101993.31;4962614;28;20050;-75
2023/07/10 05:38:24;;;;;;;6.70;3.53;;;;;;;16.23;100.00;101997.38;4977850;28;20053;-74
2023/07/10 05:41:10;;;;;;;7.57;3.85;;;;;;;16.28;100.00;101992.66;4965002;28;20066;-73
2023/07/10 05:43:56;;;;;;;6.45;3.78;;;;;;;16.33;100.00;102003.97;4977892;28;20089;-73
2023/07/10 05:46:41;;;;;;;8.35;3.85;;;;;;;16.38;100.00;101996.59;4984661;28;20039;-75
2023/07/10 05:49:27;;;;;;;8.20;3.90;;;;;;;16.49;100.00;101997.81;4971473;28;20038;-76
2023/07/10 05:52:13;;;;;;;8.63;4.03;;;;;;;16.55;100.00;101989.47;4969124;28;20030;-75
2023/07/10 05:54:59;;;;;;;8.35;4.10;;;;;;;16.69;100.00;101996.78;4940340;28;20038;-75
2023/07/10 05:57:51;;;;;;;6.13;3.65;;;;;;;16.86;100.00;101990.53;4977620;28;20521;-75
2023/07/10 06:00:36;;;;;;;8.70;3.60;;;;;;;17.09;100.00;101997.34;4976692;28;20030;-75
2023/07/10 06:03:23;;;;;;;6.35;3.28;;;;;;;17.24;100.00;101992.97;4961033;28;20042;-75
2023/07/10 06:06:09;;;;;;;6.75;3.05;;;;;;;17.40;100.00;101988.53;4978508;28;20042;-75
2023/07/10 06:08:55;;;;;;;10.60;3.30;;;;;;;17.51;100.00;101986.13;4976214;28;20026;-74
2023/07/10 06:11:41;;;;;;;7.45;3.25;;;;;;;17.67;100.00;101988.78;4975222;28;20038;-74
2023/07/10 06:14:29;;;;;;;6.68;3.00;;;;;;;17.82;100.00;101984.34;4976781;28;20058;-75
2023/07/10 06:17:15;;;;;;;5.32;2.97;;;;;;;17.97;100.00;101985.25;4976856;28;20090;-75
2023/07/10 06:20:02;;;;;;;6.28;2.63;;;;;;;18.09;100.00;101985.53;4964247;28;20038;-75
2023/07/10 06:22:48;;;;;;;6.30;2.40;;;;;;;18.23;100.00;101990.94;4974369;28;20039;-75
2023/07/10 06:25:34;;;;;;;4.13;2.10;;;;;;;18.34;100.00;101986.75;4965541;28;20050;-75
2023/07/10 06:28:21;;;;;;;4.65;2.20;;;;;;;18.38;100.00;101988.28;4975933;28;20077;-75
2023/07/10 06:31:10;;;;;;;5.10;2.00;;;;;;;18.55;100.00;101987.25;4978297;28;20055;-75
2023/07/10 06:33:59;;;;;;;5.13;2.42;;;;;;;18.66;100.00;101989.25;4997333;28;20042;-74
2023/07/10 06:36:45;;;;;;;4.10;2.20;;;;;;;18.75;100.00;101986.03;4981238;28;20046;-74
2023/07/10 06:39:31;;;;;;;5.07;2.47;;;;;;;18.83;100.00;101991.78;4994241;28;20033;-74
2023/07/10 06:42:16;;;;;;;3.72;2.00;;;;;;;19.02;100.00;101996.00;4993629;28;20570;-74
2023/07/10 06:45:04;;;;;;;6.05;2.47;;;;;;;19.21;100.00;101994.81;4989888;28;20049;-74
2023/07/10 06:47:50;;;;;;;5.43;2.30;;;;;;;19.31;100.00;101982.53;4977903;28;20662;-74
2023/07/10 06:50:39;;;;;;;6.85;2.03;;;;;;;19.49;100.00;101993.91;5002918;28;20062;-75
2023/07/10 06:53:25;;;;;;;4.18;2.25;;;;;;;19.58;100.00;101984.38;4968495;28;20042;-73
2023/07/10 06:56:11;;;;;;;7.68;2.30;;;;;;;19.65;100.00;101984.81;4992715;28;20045;-74
2023/07/10 07:01:45;;;;;;;7.65;2.40;;;;;;;19.88;100.00;101988.66;5006705;26;20505;-84
2023/07/10 07:04:31;;;;;;;6.68;2.10;;;;;;;19.94;100.00;101993.63;4992817;28;20504;-81
2023/07/10 07:07:17;;;;;;;5.90;2.30;;;;;;;19.99;100.00;102003.25;5005232;28;20456;-84
2023/07/10 07:10:07;;;;;;;4.82;2.15;;;;;;;20.09;100.00;101990.91;5007196;28;20087;-84
2023/07/10 07:12:52;;;;;;;7.80;2.88;;;;;;;20.28;100.00;101995.03;4996782;28;20077;-82
2023/07/10 07:15:38;;;;;;;9.05;2.42;;;;;;;20.39;100.00;101994.28;5005152;28;20037;-84
2023/07/10 07:18:25;;;;;;;7.38;2.20;;;;;;;20.49;100.00;101988.16;4995534;28;21917;-85
2023/07/10 07:21:13;;;;;;;5.55;2.20;;;;;;;20.66;100.00;101987.94;4977189;28;20041;-84
2023/07/10 07:23:59;;;;;;;6.35;2.17;;;;;;;20.69;100.00;101999.34;4994893;28;20041;-85
2023/07/10 07:26:44;;;;;;;5.00;2.30;;;;;;;20.85;100.00;101998.28;4984483;28;20029;-83
2023/07/10 07:29:30;;;;;;;6.80;2.40;;;;;;;21.02;100.00;102003.31;4994554;28;20034;-81
2023/07/10 07:32:17;;;;;;;5.93;2.58;;;;;;;21.13;100.00;102007.94;5006356;28;20037;-83
2023/07/10 07:35:02;;;;;;;7.10;2.40;;;;;;;21.14;100.00;102004.25;4992075;28;20152;-84
2023/07/10 07:37:48;;;;;;;5.93;2.30;;;;;;;21.06;100.00;102008.47;4982548;28;20137;-83
2023/07/10 07:40:35;;;;;;;4.82;2.80;;;;;;;21.09;100.00;102016.34;4994835;28;20030;-84
2023/07/10 07:43:21;;;;;;;6.47;2.85;;;;;;;21.22;100.00;102014.47;5005730;28;20053;-83
2023/07/10 07:46:07;;;;;;;5.20;2.65;;;;;;;21.28;100.00;102019.44;5005806;28;20034;-83
2023/07/10 07:48:52;;;;;;;7.80;2.60;;;;;;;21.33;100.00;102012.81;5006094;28;20041;-85
2023/07/10 07:51:38;;;;;;;4.80;2.65;;;;;;;21.42;100.00;102012.16;4995473;28;20614;-84
2023/07/10 07:54:24;;;;;;;7.43;2.67;;;;;;;21.51;100.00;102011.47;5011421;28;20060;-85
2023/07/10 07:57:09;;;;;;;6.43;2.60;;;;;;;21.64;100.00;102007.88;5028840;28;20043;-84
2023/07/10 07:59:55;;;;;;;9.65;3.00;;;;;;;21.84;100.00;102012.66;5013267;28;20668;-85
2023/07/10 08:02:41;;;;;;;7.75;2.50;;;;;;;21.89;100.00;102014.16;4993312;28;20501;-83
2023/07/10 08:05:27;;;;;;;10.52;3.20;;;;;;;21.84;100.00;102017.19;5000943;28;20389;-84
2023/07/10 08:08:13;;;;;;;6.75;2.55;;;;;;;21.95;100.00;102021.78;5002509;28;20117;-77
2023/07/10 08:10:59;;;;;;;6.40;2.10;;;;;;;22.06;100.00;102021.81;4995879;28;20037;-76
2023/07/10 08:13:45;;;;;;;6.57;2.47;;;;;;;22.14;100.00;102012.28;5002972;28;20092;-76
2023/07/10 08:16:31;;;;;;;5.55;2.50;;;;;;;22.30;100.00;102017.34;4987192;28;20105;-76
2023/07/10 08:19:17;;;;;;;4.90;2.28;;;;;;;22.42;100.00;102019.09;5003900;28;20156;-77
2023/07/10 08:22:02;;;;;;;7.95;2.08;;;;;;;22.48;100.00;102015.06;5000885;28;22016;-78
2023/07/10 08:24:48;;;;;;;7.97;2.78;;;;;;;22.45;100.00;102021.53;4999255;28;20084;-77
2023/07/10 08:27:34;;;;;;;6.75;2.40;;;;;;;22.28;100.00;102013.94;4998608;28;20044;-78
2023/07/10 08:30:20;;;;;;;7.57;2.45;;;;;;;22.15;100.00;102014.88;5006100;28;20030;-79
2023/07/10 08:33:06;;;;;;;6.15;2.20;;;;;;;22.10;100.00;102023.31;4998226;28;20041;-76
2023/07/10 08:36:03;;;;;;;9.40;2.40;;;;;;;22.14;100.00;102021.25;5002653;28;20037;-79
2023/07/10 08:38:48;;;;;;;5.90;2.10;;;;;;;22.23;100.00;102022.38;4995507;28;20043;-77
2023/07/10 08:41:34;;;;;;;6.95;2.42;;;;;;;22.33;100.00;102026.06;5002574;28;20045;-77
2023/07/10 08:44:26;;;;;;;6.97;2.28;;;;;;;22.42;100.00;102023.63;5010371;28;20137;-88
2023/07/10 08:47:19;;;;;;;6.20;1.98;;;;;;;22.70;100.00;102024.22;4996561;28;20037;-87
2023/07/10 08:50:29;;;;;;;6.00;1.88;;;;;;;22.83;100.00;102019.56;5003117;28;20041;-86
2023/07/10 08:53:21;;;;;;;6.38;2.17;;;;;;;22.75;100.00;102022.88;4998842;28;20052;-86
2023/07/10 08:56:23;;;;;;;4.10;2.13;;;;;;;22.85;100.00;102033.78;4991006;28;20064;-87
2023/07/10 08:59:19;;;;;;;9.18;2.22;;;;;;;22.96;100.00;102023.97;5006079;28;20467;-90
2023/07/10 09:02:15;;;;;;;4.18;1.95;;;;;;;23.24;100.00;102029.81;5007214;28;20046;-86
2023/07/10 09:05:04;;;;;;;3.47;2.03;;;;;;;23.54;100.00;102039.16;4992226;28;20045;-93
2023/07/10 09:07:50;;;;;;;7.80;2.20;;;;;;;23.51;100.00;102042.09;4989232;28;20036;-82
2023/07/10 09:11:01;;;;;;;6.43;2.13;;;;;;;23.26;100.00;102038.69;4990463;28;20053;-88
2023/07/10 09:13:54;;;;;;;5.13;2.25;;;;;;;23.06;100.00;102043.84;5000464;28;20057;-89
2023/07/10 09:16:39;;;;;;;5.97;2.28;;;;;;;23.15;100.00;102042.25;4999310;28;20032;-90
2023/07/10 09:19:30;;;;;;;4.05;2.00;;;;;;;23.34;100.00;102041.66;5010839;28;20066;-92
2023/07/10 09:22:19;;;;;;;4.60;2.25;;;;;;;23.30;100.00;102054.56;4998388;28;20180;-87
2023/07/10 09:25:12;;;;;;;5.60;2.30;;;;;;;23.16;100.00;102062.88;4986027;28;20044;-87
2023/07/10 09:27:58;;;;;;;7.57;2.40;;;;;;;23.04;100.00;102054.78;5001141;28;20045;-82
2023/07/10 09:30:56;;;;;;;4.57;2.20;;;;;;;22.80;100.00;102057.59;5001046;28;20073;-81
2023/07/10 09:33:44;;;;;;;5.43;2.13;;;;;;;22.75;100.00;102059.78;4973863;28;20068;-82
2023/07/10 09:36:30;;;;;;;5.15;2.58;;;;;;;22.62;100.00;102055.34;4977545;28;20037;-82
2023/07/10 09:39:16;;;;;;;7.88;2.50;;;;;;;22.60;100.00;102046.50;5007066;28;20033;-81
2023/07/10 09:42:04;;;;;;;5.70;2.40;;;;;;;22.94;100.00;102051.09;5002924;28;20037;-79
2023/07/10 09:44:52;;;;;;;5.93;2.50;;;;;;;23.10;100.00;102055.28;5006798;28;20045;-88
2023/07/10 09:47:40;;;;;;;4.78;1.95;;;;;;;23.26;100.00;102061.13;5007138;28;20041;-85
2023/07/10 09:50:26;;;;;;;5.95;2.05;;;;;;;23.41;100.00;102052.81;5002993;28;20034;-86
2023/07/10 09:53:33;;;;;;;8.60;2.45;;;;;;;23.61;100.00;102045.78;4987607;28;20033;-87
2023/07/10 09:56:22;;;;;;;6.45;2.33;;;;;;;23.69;100.00;102059.50;5005960;28;20188;-86
2023/07/10 09:59:20;;;;;;;6.78;2.63;;;;;;;23.49;100.00;102047.66;5002526;28;20037;-87
2023/07/10 10:02:27;;;;;;;8.48;2.80;;;;;;;23.27;100.00;102059.31;4976281;28;20057;-90
2023/07/10 10:05:15;;;;;;;5.00;2.20;;;;;;;22.97;100.00;102058.06;5011837;28;20071;-87
2023/07/10 10:08:04;;;;;;;5.95;2.50;;;;;;;22.91;100.00;102044.09;5031580;28;20100;-82
2023/07/10 10:11:00;;;;;;;5.40;2.30;;;;;;;22.87;100.00;102052.56;5009594;28;20036;-86
2023/07/10 10:13:56;;;;;;;5.75;2.10;;;;;;;22.76;100.00;102059.66;5016822;28;20145;-83
2023/07/10 10:16:54;;;;;;;5.20;2.45;;;;;;;22.72;100.00;102049.25;4983442;28;20116;-85
2023/07/10 10:19:43;;;;;;;4.43;2.40;;;;;;;22.85;100.00;102058.09;4974182;28;20064;-85
2023/07/10 10:22:32;;;;;;;4.05;2.10;;;;;;;23.00;100.00;102056.03;4989506;28;20059;-83
2023/07/10 10:25:20;;;;;;;6.72;2.55;;;;;;;23.03;100.00;102062.97;4989038;28;20055;-84
2023/07/10 10:28:17;;;;;;;5.05;2.05;;;;;;;22.89;100.00;102073.03;4990326;28;20037;-86
2023/07/10 10:31:07;;;;;;;5.38;1.90;;;;;;;22.74;100.00;102076.97;4992117;28;20445;-86
2023/07/10 10:33:59;;;;;;;7.75;1.98;;;;;;;22.72;100.00;102070.81;4983816;28;20136;-89
2023/07/10 10:37:17;;;;;;;5.82;1.80;;;;;;;22.82;100.00;102082.59;4992428;28;20052;-86
2023/07/10 10:40:15;;;;;;;6.18;2.10;;;;;;;22.86;100.00;102073.28;5007803;28;20099;-85
2023/07/10 10:43:33;;;;;;;5.00;1.73;;;;;;;22.86;100.00;102081.41;4995232;28;20037;-85
2023/07/10 10:46:47;;;;;;;5.47;1.80;;;;;;;22.85;100.00;102074.28;4992160;28;20037;-86
2023/07/10 10:50:10;;;;;;;3.75;1.40;;;;;;;22.99;100.00;102078.56;4996722;28;20045;-90
2023/07/10 10:53:11;;;;;;;;;;;;;;;23.00;100.00;102074.91;5011390;28;20939;-87
2023/07/10 10:56:02;;;;;;;4.28;1.50;;;;;;;23.03;100.00;102079.19;5010318;28;19924;-91
2023/07/10 10:59:12;;;;;;;3.03;1.30;;;;;;;23.16;97.80;102084.50;4986849;28;20692;-87
2023/07/10 11:02:19;;;;;;;4.50;1.50;;;;;;;23.16;100.00;102079.94;4982812;28;20049;-88
2023/07/10 11:05:31;;;;;;;4.40;1.60;;;;;;;23.27;100.00;102079.06;4986263;28;20084;-89
2023/07/10 11:08:23;;;;;;;3.65;1.70;;;;;;;23.13;100.00;102082.88;4996597;28;20044;-87
2023/07/10 11:11:29;;;;;;;3.33;1.40;;;;;;;22.84;100.00;102077.09;4992127;28;20030;-88
2023/07/10 11:14:15;;;;;;;3.78;1.65;;;;;;;22.55;100.00;102085.63;4992218;28;20037;-86
2023/07/10 11:17:00;;;;;;;5.25;1.60;;;;;;;22.38;100.00;102085.03;4997794;28;20534;-87
2023/07/10 11:19:48;;;;;;;2.67;1.25;;;;;;;22.33;100.00;102080.00;4994060;28;20128;-87
2023/07/10 11:22:35;;;;;;;5.00;1.40;;;;;;;22.30;99.80;102082.09;5010087;28;20044;-86
2023/07/10 11:25:38;;;;;;;3.60;1.17;;;;;;;22.37;98.16;102084.19;5007063;28;20136;-87
2023/07/10 11:28:27;;;;;;;;;;;;;;;22.49;94.66;102093.19;5011179;28;20144;-86
2023/07/10 11:31:31;;;;;;;6.63;1.23;;;;;;;22.51;96.39;102091.25;4984632;28;19936;-90
2023/07/10 11:34:19;;;;;;;4.28;1.38;;;;;;;22.48;96.53;102093.28;4992537;28;20457;-89
2023/07/10 11:37:44;;;;;;;5.50;1.20;;;;;;;22.43;94.08;102093.66;5006950;28;20039;-83
2023/07/10 11:40:37;;;;;;;2.80;1.00;;;;;;;22.42;97.32;102094.63;4994032;28;20485;-88
2023/07/10 11:43:25;;;;;;;;;;;;;;;22.54;93.52;102103.66;5010142;28;20038;-84
2023/07/10 11:46:23;;;;;;;4.80;1.30;;;;;;;22.70;96.00;102100.63;4993286;28;19932;-84
2023/07/10 11:49:15;;;;;;;2.60;1.10;;;;;;;22.73;93.80;102094.13;4993859;28;20034;-87
2023/07/10 11:52:13;;;;;;;1.90;0.70;;;;;;;22.70;91.81;102087.13;5008296;28;20602;-82
2023/07/10 11:55:01;;;;;;;3.78;1.08;;;;;;;22.79;93.70;102077.47;5006247;28;20488;-82
2023/07/10 11:58:16;;;;;;;1.70;0.98;;;;;;;22.85;87.67;102089.59;5007844;28;20103;-83
2023/07/10 12:01:13;;;;;;;2.08;0.77;;;;;;;22.95;91.40;102081.63;4993188;28;20119;-83
2023/07/10 12:03:59;;;;;;;2.10;1.00;;;;;;;23.00;89.52;102093.81;5007771;28;20030;-82
2023/07/10 12:06:46;;;;;;;2.10;0.90;;;;;;;23.10;89.93;102088.50;4994745;28;20037;-83
2023/07/10 12:09:31;;;;;;;3.55;0.90;;;;;;;23.24;90.67;102087.41;5003293;28;20037;-84
2023/07/10 12:12:17;;;;;;;1.58;0.70;;;;;;;23.42;88.54;102095.91;5020796;28;20055;-84
2023/07/10 12:15:03;;;;;;;2.35;1.02;;;;;;;23.46;86.49;102097.41;5014011;28;20028;-83
2023/07/10 12:17:52;;;;;;;3.38;1.02;;;;;;;23.54;85.88;102106.72;5016199;28;20180;-82
2023/07/10 12:20:38;;;;;;;4.53;1.35;;;;;;;23.50;84.33;102102.53;5008969;28;20503;-79
2023/07/10 12:23:24;;;;;;;3.72;0.90;;;;;;;23.43;84.05;102108.44;5006489;28;20026;-81
2023/07/10 12:26:16;;;;;;;1.50;0.80;;;;;;;23.31;82.28;102098.66;4992528;28;20114;-82
2023/07/10 12:29:02;;;;;;;3.20;1.10;;;;;;;23.27;84.39;102102.53;5012539;28;20046;-83
2023/07/10 12:31:51;;;;;;;3.05;0.80;;;;;;;23.24;84.45;102102.75;5011615;28;20042;-82
2023/07/10 12:34:36;;;;;;;2.40;0.90;;;;;;;23.24;84.01;102102.75;5010397;28;20053;-86
2023/07/10 12:37:22;;;;;;;2.10;1.00;;;;;;;23.31;83.72;102112.16;4991550;28;20030;-84
2023/07/10 12:40:14;;;;;;;0.88;0.70;;;;;;;23.30;82.73;102110.41;4996584;28;20492;-84
2023/07/10 12:43:20;;;;;;;2.63;1.33;;;;;;;23.37;77.41;102108.94;4997708;28;20049;-81
2023/07/10 12:46:15;;;;;;;3.20;0.85;;;;;;;23.48;82.26;102120.72;5011745;28;20068;-83
2023/07/10 12:49:06;;;;;;;2.20;0.98;;;;;;;23.46;83.70;102120.84;5011944;28;20270;-84
2023/07/10 12:51:52;;;;;;;1.80;0.63;;;;;;;23.48;83.87;102120.72;4983736;28;20092;-82
2023/07/10 12:54:46;;;;;;;3.15;0.82;;;;;;;23.56;83.24;102123.66;5011026;28;20040;-83
2023/07/10 12:57:35;;;;;;;1.20;0.80;;;;;;;23.67;82.96;102120.06;5013555;28;21897;-83